sensor_id;sensor_type;location;lat;lon;timestamp;pressure;altitude;pressure_sealevel;temperature;humidity
17525;BME280;40431;52.198;9.902;2023-02-28T00:01:07;102234.56;;;0.86;97.06
17525;BME280;40431;52.198;9.902;2023-02-28T00:03:33;102230.97;;;0.77;97.41
17525;BME280;40431;52.198;9.902;2023-02-28T00:06:00;102233.66;;;0.80;100.00
17525;BME280;40431;52.198;9.902;2023-02-28T00:08:28;102238.13;;;0.81;100.00
17525;BME280;40431;52.198;9.902;2023-02-28T00:10:55;102236.38;;;0.87;100.00
17525;BME280;40431;52.198;9.902;2023-02-28T00:13:21;102239.03;;;0.87;100.00
17525;BME280;40431;52.198;9.902;2023-02-28T00:15:47;102236.38;;;0.88;100.00
17525;BME280;40431;52.198;9.902;2023-02-28T00:18:24;102243.53;;;0.97;100.00
17525;BME280;40431;52.198;9.902;2023-02-28T00:20:50;102236.38;;;0.93;100.00
17525;BME280;40431;52.198;9.902;2023-02-28T00:23:16;102233.72;;;0.90;100.00
17525;BME280;40431;52.198;9.902;2023-02-28T00:25:44;102232.78;;;0.85;100.00
17525;BME280;40431;52.198;9.902;2023-02-28T00:28:10;102236.31;;;0.80;100.00
17525;BME280;40431;52.198;9.902;2023-02-28T00:30:37;102231.84;;;0.73;99.42
17525;BME280;40431;52.198;9.902;2023-02-28T00:33:03;102229.13;;;0.70;99.52
17525;BME280;40431;52.198;9.902;2023-02-28T00:35:29;102231.78;;;0.70;100.00
17525;BME280;40431;52.198;9.902;2023-02-28T00:37:56;102231.84;;;0.75;100.00
17525;BME280;40431;52.198;9.902;2023-02-28T00:40:22;102228.25;;;0.73;100.00
17525;BME280;40431;52.198;9.902;2023-02-28T00:42:50;102228.25;;;0.74;100.00
17525;BME280;40431;52.198;9.902;2023-02-28T00:45:16;102222.91;;;0.71;100.00
17525;BME280;40431;52.198;9.902;2023-02-28T00:47:43;102223.78;;;0.70;100.00
17525;BME280;40431;52.198;9.902;2023-02-28T00:50:10;102220.19;;;0.65;100.00
17525;BME280;40431;52.198;9.902;2023-02-28T00:52:36;102226.38;;;0.59;100.00
17525;BME280;40431;52.198;9.902;2023-02-28T00:55:03;102228.13;;;0.56;100.00
17525;BME280;40431;52.198;9.902;2023-02-28T00:57:30;102229.00;;;0.52;100.00
17525;BME280;40431;52.198;9.902;2023-02-28T00:59:57;102232.53;;;0.47;100.00
17525;BME280;40431;52.198;9.902;2023-02-28T01:02:24;102232.53;;;0.47;100.00
17525;BME280;40431;52.198;9.902;2023-02-28T01:04:50;102229.84;;;0.47;100.00
17525;BME280;40431;52.198;9.902;2023-02-28T01:07:16;102231.59;;;0.42;100.00
17525;BME280;40431;52.198;9.902;2023-02-28T01:09:43;102229.81;;;0.41;100.00
17525;BME280;40431;52.198;9.902;2023-02-28T01:12:09;102242.19;;;0.31;100.00
17525;BME280;40431;52.198;9.902;2023-02-28T01:14:36;102233.28;;;0.29;100.00
17525;BME280;40431;52.198;9.902;2023-02-28T01:17:04;102236.78;;;0.25;100.00
17525;BME280;40431;52.198;9.902;2023-02-28T01:19:31;102236.78;;;0.25;100.00
17525;BME280;40431;52.198;9.902;2023-02-28T01:22:00;102242.09;;;0.22;100.00
17525;BME280;40431;52.198;9.902;2023-02-28T01:24:26;102234.06;;;0.18;100.00
17525;BME280;40431;52.198;9.902;2023-02-28T01:26:53;102240.28;;;0.20;100.00
17525;BME280;40431;52.198;9.902;2023-02-28T01:29:19;102241.16;;;0.19;100.00
17525;BME280;40431;52.198;9.902;2023-02-28T01:31:45;102233.94;;;0.05;100.00
17525;BME280;40431;52.198;9.902;2023-02-28T01:34:13;102237.53;;;0.07;100.00
17525;BME280;40431;52.198;9.902;2023-02-28T01:36:40;102230.34;;;0.00;100.00
17525;BME280;40431;52.198;9.902;2023-02-28T01:39:06;102228.50;;;-0.04;100.00
17525;BME280;40431;52.198;9.902;2023-02-28T01:41:34;102232.00;;;-0.11;100.00
17525;BME280;40431;52.198;9.902;2023-02-28T01:44:03;102230.22;;;-0.12;100.00
17525;BME280;40431;52.198;9.902;2023-02-28T01:46:31;102223.91;;;-0.19;100.00
17525;BME280;40431;52.198;9.902;2023-02-28T01:49:03;102223.03;;;-0.20;100.00
17525;BME280;40431;52.198;9.902;2023-02-28T01:51:41;102221.28;;;-0.18;100.00
17525;BME280;40431;52.198;9.902;2023-02-28T01:54:13;102222.97;;;-0.24;100.00
17525;BME280;40431;52.198;9.902;2023-02-28T01:56:44;102226.56;;;-0.24;100.00
17525;BME280;40431;52.198;9.902;2023-02-28T01:59:14;102223.78;;;-0.33;100.00
17525;BME280;40431;52.198;9.902;2023-02-28T02:01:44;102230.88;;;-0.35;100.00
17525;BME280;40431;52.198;9.902;2023-02-28T02:04:10;102222.00;;;-0.36;100.00
17525;BME280;40431;52.198;9.902;2023-02-28T02:06:41;102226.06;;;-0.67;100.00
17525;BME280;40431;52.198;9.902;2023-02-28T02:09:09;102221.56;;;-0.73;100.00
17525;BME280;40431;52.198;9.902;2023-02-28T02:11:36;102218.84;;;-0.76;100.00
17525;BME280;40431;52.198;9.902;2023-02-28T02:17:04;102217.72;;;-0.95;100.00
17525;BME280;40431;52.198;9.902;2023-02-28T02:19:52;102203.41;;;-1.03;100.00
17525;BME280;40431;52.198;9.902;2023-02-28T02:25:38;102210.41;;;-1.10;100.00
17525;BME280;40431;52.198;9.902;2023-02-28T02:28:22;102206.94;;;-1.04;100.00
17525;BME280;40431;52.198;9.902;2023-02-28T02:34:28;102206.03;;;-1.06;100.00
17525;BME280;40431;52.198;9.902;2023-02-28T02:37:04;102199.81;;;-1.05;100.00
17525;BME280;40431;52.198;9.902;2023-02-28T02:39:38;102199.00;;;-1.01;100.00
17525;BME280;40431;52.198;9.902;2023-02-28T02:42:12;102201.69;;;-0.99;100.00
17525;BME280;40431;52.198;9.902;2023-02-28T02:44:42;102199.88;;;-1.02;100.00
17525;BME280;40431;52.198;9.902;2023-02-28T02:47:13;102197.13;;;-1.07;100.00
17525;BME280;40431;52.198;9.902;2023-02-28T02:49:46;102197.03;;;-1.14;100.00
17525;BME280;40431;52.198;9.902;2023-02-28T02:52:17;102198.75;;;-1.20;100.00
17525;BME280;40431;52.198;9.902;2023-02-28T02:54:47;102193.38;;;-1.23;100.00
17525;BME280;40431;52.198;9.902;2023-02-28T02:57:21;102205.78;;;-1.25;100.00
17525;BME280;40431;52.198;9.902;2023-02-28T02:59:50;102206.63;;;-1.26;100.00
17525;BME280;40431;52.198;9.902;2023-02-28T03:02:20;102207.50;;;-1.27;100.00
17525;BME280;40431;52.198;9.902;2023-02-28T03:04:51;102211.94;;;-1.27;100.00
17525;BME280;40431;52.198;9.902;2023-02-28T03:07:18;102212.94;;;-1.21;100.00
17525;BME280;40431;52.198;9.902;2023-02-28T03:09:50;102214.78;;;-1.13;100.00
17525;BME280;40431;52.198;9.902;2023-02-28T03:12:17;102214.91;;;-1.06;100.00
17525;BME280;40431;52.198;9.902;2023-02-28T03:14:54;102211.28;;;-1.09;100.00
17525;BME280;40431;52.198;9.902;2023-02-28T03:17:44;102213.06;;;-1.11;100.00
17525;BME280;40431;52.198;9.902;2023-02-28T03:20:25;102216.56;;;-1.14;100.00
17525;BME280;40431;52.198;9.902;2023-02-28T03:23:02;102206.78;;;-1.15;100.00
17525;BME280;40431;52.198;9.902;2023-02-28T03:25:35;102215.63;;;-1.16;100.00
17525;BME280;40431;52.198;9.902;2023-02-28T03:28:08;102224.53;;;-1.15;100.00
17525;BME280;40431;52.198;9.902;2023-02-28T03:30:43;102220.13;;;-1.13;100.00
17525;BME280;40431;52.198;9.902;2023-02-28T03:33:12;102216.50;;;-1.19;100.00
17525;BME280;40431;52.198;9.902;2023-02-28T03:35:47;102214.75;;;-1.16;100.00
17525;BME280;40431;52.198;9.902;2023-02-28T03:38:17;102218.31;;;-1.14;100.00
17525;BME280;40431;52.198;9.902;2023-02-28T03:40:48;102216.50;;;-1.19;100.00
17525;BME280;40431;52.198;9.902;2023-02-28T03:43:21;102223.63;;;-1.16;100.00
17525;BME280;40431;52.198;9.902;2023-02-28T03:45:50;102227.19;;;-1.15;100.00
17525;BME280;40431;52.198;9.902;2023-02-28T03:48:22;102222.75;;;-1.15;100.00
17525;BME280;40431;52.198;9.902;2023-02-28T03:50:54;102220.91;;;-1.21;100.00
17525;BME280;40431;52.198;9.902;2023-02-28T03:53:28;102228.91;;;-1.21;100.00
17525;BME280;40431;52.198;9.902;2023-02-28T03:55:59;102223.56;;;-1.21;100.00
17525;BME280;40431;52.198;9.902;2023-02-28T03:58:31;102225.38;;;-1.20;100.00
17525;BME280;40431;52.198;9.902;2023-02-28T04:01:05;102229.78;;;-1.20;100.00
17525;BME280;40431;52.198;9.902;2023-02-28T04:03:34;102231.47;;;-1.25;100.00
17525;BME280;40431;52.198;9.902;2023-02-28T04:06:04;102223.44;;;-1.30;100.00
17525;BME280;40431;52.198;9.902;2023-02-28T04:08:31;102225.19;;;-1.30;100.00
17525;BME280;40431;52.198;9.902;2023-02-28T04:11:01;102221.59;;;-1.36;100.00
17525;BME280;40431;52.198;9.902;2023-02-28T04:13:29;102228.66;;;-1.36;100.00
17525;BME280;40431;52.198;9.902;2023-02-28T04:15:56;102228.63;;;-1.39;100.00
17525;BME280;40431;52.198;9.902;2023-02-28T04:18:22;102238.34;;;-1.40;100.00
17525;BME280;40431;52.198;9.902;2023-02-28T04:20:48;102233.00;;;-1.41;100.00
17525;BME280;40431;52.198;9.902;2023-02-28T04:23:16;102233.00;;;-1.43;100.00
17525;BME280;40431;52.198;9.902;2023-02-28T04:25:43;102233.00;;;-1.43;100.00
17525;BME280;40431;52.198;9.902;2023-02-28T04:28:09;102232.00;;;-1.49;100.00
17525;BME280;40431;52.198;9.902;2023-02-28T04:30:37;102235.53;;;-1.51;100.00
17525;BME280;40431;52.198;9.902;2023-02-28T04:33:04;102236.41;;;-1.52;100.00
17525;BME280;40431;52.198;9.902;2023-02-28T04:35:30;102242.66;;;-1.49;100.00
17525;BME280;40431;52.198;9.902;2023-02-28T04:37:56;102240.03;;;-1.46;100.00
17525;BME280;40431;52.198;9.902;2023-02-28T04:40:24;102231.16;;;-1.47;100.00
17525;BME280;40431;52.198;9.902;2023-02-28T04:42:51;102240.97;;;-1.44;100.00
17525;BME280;40431;52.198;9.902;2023-02-28T04:45:17;102237.31;;;-1.49;100.00
17525;BME280;40431;52.198;9.902;2023-02-28T04:47:43;102244.47;;;-1.45;100.00
17525;BME280;40431;52.198;9.902;2023-02-28T04:50:10;102249.81;;;-1.45;100.00
17525;BME280;40431;52.198;9.902;2023-02-28T04:52:36;102248.00;;;-1.46;100.00
17525;BME280;40431;52.198;9.902;2023-02-28T04:55:03;102255.16;;;-1.42;100.00
17525;BME280;40431;52.198;9.902;2023-02-28T04:57:31;102251.63;;;-1.41;100.00
17525;BME280;40431;52.198;9.902;2023-02-28T04:59:58;102247.19;;;-1.42;100.00
17525;BME280;40431;52.198;9.902;2023-02-28T05:02:24;102248.13;;;-1.40;100.00
17525;BME280;40431;52.198;9.902;2023-02-28T05:04:51;102255.22;;;-1.39;100.00
17525;BME280;40431;52.198;9.902;2023-02-28T05:07:17;102252.59;;;-1.38;100.00
17525;BME280;40431;52.198;9.902;2023-02-28T05:09:43;102245.56;;;-1.34;100.00
17525;BME280;40431;52.198;9.902;2023-02-28T05:12:09;102258.06;;;-1.28;100.00
17525;BME280;40431;52.198;9.902;2023-02-28T05:14:37;102258.94;;;-1.28;100.00
17525;BME280;40431;52.198;9.902;2023-02-28T05:17:04;102259.00;;;-1.25;100.00
17525;BME280;40431;52.198;9.902;2023-02-28T05:19:30;102256.38;;;-1.23;100.00
17525;BME280;40431;52.198;9.902;2023-02-28T05:21:56;102246.56;;;-1.26;100.00
17525;BME280;40431;52.198;9.902;2023-02-28T05:24:23;102247.44;;;-1.27;100.00
17525;BME280;40431;52.198;9.902;2023-02-28T05:26:50;102255.50;;;-1.21;100.00
17525;BME280;40431;52.198;9.902;2023-02-28T05:29:18;102249.34;;;-1.18;100.00
17525;BME280;40431;52.198;9.902;2023-02-28T05:31:46;102252.06;;;-1.13;100.00
17525;BME280;40431;52.198;9.902;2023-02-28T05:34:13;102242.22;;;-1.21;100.00
17525;BME280;40431;52.198;9.902;2023-02-28T05:36:40;102242.94;;;-1.29;100.00
17525;BME280;40431;52.198;9.902;2023-02-28T05:39:07;102242.81;;;-1.39;100.00
17525;BME280;40431;52.198;9.902;2023-02-28T05:41:38;102242.66;;;-1.49;100.00
17525;BME280;40431;52.198;9.902;2023-02-28T05:44:04;102239.00;;;-1.55;100.00
17525;BME280;40431;52.198;9.902;2023-02-28T05:46:31;102231.81;;;-1.63;100.00
17525;BME280;40431;52.198;9.902;2023-02-28T05:48:58;102239.66;;;-1.71;100.00
17525;BME280;40431;52.198;9.902;2023-02-28T05:51:26;102236.81;;;-1.82;100.00
17525;BME280;40431;52.198;9.902;2023-02-28T05:53:52;102242.94;;;-1.86;100.00
17525;BME280;40431;52.198;9.902;2023-02-28T05:56:18;102250.00;;;-1.87;100.00
17525;BME280;40431;52.198;9.902;2023-02-28T05:58:45;102245.56;;;-1.88;100.00
17525;BME280;40431;52.198;9.902;2023-02-28T06:01:31;102240.97;;;-1.98;100.00
17525;BME280;40431;52.198;9.902;2023-02-28T06:04:00;102240.84;;;-2.04;100.00
17525;BME280;40431;52.198;9.902;2023-02-28T06:06:26;102245.19;;;-2.08;100.00
17525;BME280;40431;52.198;9.902;2023-02-28T06:08:53;102245.84;;;-2.20;100.00
17525;BME280;40431;52.198;9.902;2023-02-28T06:11:19;102244.03;;;-2.22;100.00
17525;BME280;40431;52.198;9.902;2023-02-28T06:13:46;102247.59;;;-2.22;100.00
17525;BME280;40431;52.198;9.902;2023-02-28T06:16:12;102256.56;;;-2.16;100.00
17525;BME280;40431;52.198;9.902;2023-02-28T06:18:39;102268.22;;;-2.08;100.00
17525;BME280;40431;52.198;9.902;2023-02-28T06:21:06;102278.22;;;-1.96;100.00
17525;BME280;40431;52.198;9.902;2023-02-28T06:23:34;102264.97;;;-1.92;100.00
17525;BME280;40431;52.198;9.902;2023-02-28T06:26:00;102267.72;;;-1.87;100.00
17525;BME280;40431;52.198;9.902;2023-02-28T06:28:27;102276.59;;;-1.87;100.00
17525;BME280;40431;52.198;9.902;2023-02-28T06:30:53;102273.09;;;-1.84;100.00
17525;BME280;40431;52.198;9.902;2023-02-28T06:33:19;102269.56;;;-1.83;100.00
17525;BME280;40431;52.198;9.902;2023-02-28T06:35:47;102279.47;;;-1.74;100.00
17525;BME280;40431;52.198;9.902;2023-02-28T06:38:15;102291.91;;;-1.72;100.00
17525;BME280;40431;52.198;9.902;2023-02-28T06:40:41;102289.25;;;-1.72;100.00
17525;BME280;40431;52.198;9.902;2023-02-28T06:43:09;102290.91;;;-1.78;100.00
17525;BME280;40431;52.198;9.902;2023-02-28T06:45:41;102291.72;;;-1.82;100.00
17525;BME280;40431;52.198;9.902;2023-02-28T06:48:08;102303.28;;;-1.82;100.00
17525;BME280;40431;52.198;9.902;2023-02-28T06:50:35;102309.59;;;-1.75;100.00
17525;BME280;40431;52.198;9.902;2023-02-28T06:53:01;102311.34;;;-1.77;100.00
17525;BME280;40431;52.198;9.902;2023-02-28T06:55:29;102309.53;;;-1.78;100.00
17525;BME280;40431;52.198;9.902;2023-02-28T06:57:56;102311.38;;;-1.74;100.00
17525;BME280;40431;52.198;9.902;2023-02-28T07:00:23;102307.84;;;-1.73;100.00
17525;BME280;40431;52.198;9.902;2023-02-28T07:02:50;102303.38;;;-1.76;100.00
17525;BME280;40431;52.198;9.902;2023-02-28T07:05:17;102313.31;;;-1.67;100.00
17525;BME280;40431;52.198;9.902;2023-02-28T07:07:43;102318.78;;;-1.58;100.00
17525;BME280;40431;52.198;9.902;2023-02-28T07:10:12;102320.63;;;-1.54;100.00
17525;BME280;40431;52.198;9.902;2023-02-28T07:12:43;102323.41;;;-1.46;100.00
17525;BME280;40431;52.198;9.902;2023-02-28T07:15:10;102317.31;;;-1.40;100.00
17525;BME280;40431;52.198;9.902;2023-02-28T07:17:36;102315.56;;;-1.38;100.00
17525;BME280;40431;52.198;9.902;2023-02-28T07:20:03;102322.78;;;-1.29;100.00
17525;BME280;40431;52.198;9.902;2023-02-28T07:22:30;102327.38;;;-1.21;100.00
17525;BME280;40431;52.198;9.902;2023-02-28T07:24:56;102332.84;;;-1.11;100.00
17525;BME280;40431;52.198;9.902;2023-02-28T07:27:22;102326.72;;;-1.07;100.00
17525;BME280;40431;52.198;9.902;2023-02-28T07:29:52;102323.31;;;-0.97;100.00
17525;BME280;40431;52.198;9.902;2023-02-28T07:32:19;102327.88;;;-0.88;100.00
17525;BME280;40431;52.198;9.902;2023-02-28T07:34:46;102335.94;;;-0.83;100.00
17525;BME280;40431;52.198;9.902;2023-02-28T07:37:13;102336.00;;;-0.77;100.00
17525;BME280;40431;52.198;9.902;2023-02-28T07:39:40;102329.91;;;-0.70;100.00
17525;BME280;40431;52.198;9.902;2023-02-28T07:42:07;102335.19;;;-0.73;100.00
17525;BME280;40431;52.198;9.902;2023-02-28T07:44:35;102328.09;;;-0.74;100.00
17525;BME280;40431;52.198;9.902;2023-02-28T07:47:07;102332.59;;;-0.70;100.00
17525;BME280;40431;52.198;9.902;2023-02-28T07:49:34;102332.72;;;-0.61;100.00
17525;BME280;40431;52.198;9.902;2023-02-28T07:52:00;102328.34;;;-0.56;100.00
17525;BME280;40431;52.198;9.902;2023-02-28T07:54:26;102336.41;;;-0.49;100.00
17525;BME280;40431;52.198;9.902;2023-02-28T07:56:53;102332.88;;;-0.48;100.00
17525;BME280;40431;52.198;9.902;2023-02-28T07:59:19;102323.13;;;-0.46;100.00
17525;BME280;40431;52.198;9.902;2023-02-28T08:01:45;102328.53;;;-0.40;100.00
17525;BME280;40431;52.198;9.902;2023-02-28T08:04:16;102331.28;;;-0.34;100.00
17525;BME280;40431;52.198;9.902;2023-02-28T08:06:42;102326.91;;;-0.30;100.00
17525;BME280;40431;52.198;9.902;2023-02-28T08:09:08;102323.25;;;-0.37;100.00
17525;BME280;40431;52.198;9.902;2023-02-28T08:11:35;102331.31;;;-0.31;100.00
17525;BME280;40431;52.198;9.902;2023-02-28T08:14:01;102324.25;;;-0.29;100.00
17525;BME280;40431;52.198;9.902;2023-02-28T08:16:28;102318.91;;;-0.29;100.00
17525;BME280;40431;52.198;9.902;2023-02-28T08:18:54;102322.56;;;-0.21;100.00
17525;BME280;40431;52.198;9.902;2023-02-28T08:21:22;102320.81;;;-0.19;100.00
17525;BME280;40431;52.198;9.902;2023-02-28T08:23:49;102317.34;;;-0.11;100.00
17525;BME280;40431;52.198;9.902;2023-02-28T08:26:16;102316.56;;;-0.01;100.00
17525;BME280;40431;52.198;9.902;2023-02-28T08:28:42;102317.53;;;0.04;100.00
17525;BME280;40431;52.198;9.902;2023-02-28T08:31:10;102321.19;;;0.19;100.00
17525;BME280;40431;52.198;9.902;2023-02-28T08:33:37;102324.81;;;0.25;100.00
17525;BME280;40431;52.198;9.902;2023-02-28T08:36:04;102325.81;;;0.33;100.00
17525;BME280;40431;52.198;9.902;2023-02-28T08:38:33;102316.97;;;0.39;100.00
17525;BME280;40431;52.198;9.902;2023-02-28T08:41:00;102323.28;;;0.47;100.00
17525;BME280;40431;52.198;9.902;2023-02-28T08:43:27;102324.13;;;0.43;100.00
17525;BME280;40431;52.198;9.902;2023-02-28T08:45:55;102326.88;;;0.53;100.00
17525;BME280;40431;52.198;9.902;2023-02-28T08:48:21;102326.94;;;0.57;100.00
17525;BME280;40431;52.198;9.902;2023-02-28T08:50:55;102326.09;;;0.63;100.00
17525;BME280;40431;52.198;9.902;2023-02-28T08:53:21;102327.03;;;0.68;100.00
17525;BME280;40431;52.198;9.902;2023-02-28T08:55:55;102336.00;;;0.79;99.16
17525;BME280;40431;52.198;9.902;2023-02-28T08:58:21;102335.16;;;0.85;99.73
17525;BME280;40431;52.198;9.902;2023-02-28T09:00:48;102325.44;;;0.96;100.00
17525;BME280;40431;52.198;9.902;2023-02-28T09:03:15;102329.97;;;1.05;99.28
17525;BME280;40431;52.198;9.902;2023-02-28T09:05:51;102329.13;;;1.11;98.30
17525;BME280;40431;52.198;9.902;2023-02-28T09:08:18;102333.59;;;1.16;97.10
17525;BME280;40431;52.198;9.902;2023-02-28T09:10:44;102326.50;;;1.22;95.87
17525;BME280;40431;52.198;9.902;2023-02-28T09:13:12;102336.34;;;1.26;96.94
17525;BME280;40431;52.198;9.902;2023-02-28T09:15:38;102323.88;;;1.28;96.71
17525;BME280;40431;52.198;9.902;2023-02-28T09:18:05;102335.47;;;1.30;96.70
17525;BME280;40431;52.198;9.902;2023-02-28T09:20:31;102328.38;;;1.35;96.51
17525;BME280;40431;52.198;9.902;2023-02-28T09:22:57;102325.69;;;1.38;95.66
17525;BME280;40431;52.198;9.902;2023-02-28T09:25:24;102329.31;;;1.45;95.54
17525;BME280;40431;52.198;9.902;2023-02-28T09:27:50;102326.69;;;1.51;95.20
17525;BME280;40431;52.198;9.902;2023-02-28T09:30:18;102321.38;;;1.57;94.28
17525;BME280;40431;52.198;9.902;2023-02-28T09:32:44;102326.72;;;1.63;95.23
17525;BME280;40431;52.198;9.902;2023-02-28T09:35:17;102330.31;;;1.69;95.63
17525;BME280;40431;52.198;9.902;2023-02-28T09:37:43;102329.47;;;1.74;95.63
17525;BME280;40431;52.198;9.902;2023-02-28T09:40:11;102333.06;;;1.86;93.78
17525;BME280;40431;52.198;9.902;2023-02-28T09:42:38;102333.03;;;1.79;90.42
17525;BME280;40431;52.198;9.902;2023-02-28T09:45:13;102321.44;;;1.82;90.86
17525;BME280;40431;52.198;9.902;2023-02-28T09:47:47;102331.31;;;1.91;91.14
17525;BME280;40431;52.198;9.902;2023-02-28T09:50:19;102329.50;;;1.90;90.26
17525;BME280;40431;52.198;9.902;2023-02-28T09:52:49;102325.91;;;1.84;88.19
17525;BME280;40431;52.198;9.902;2023-02-28T09:55:20;102333.06;;;1.89;90.47
17525;BME280;40431;52.198;9.902;2023-02-28T09:57:50;102329.50;;;1.93;90.23
17525;BME280;40431;52.198;9.902;2023-02-28T10:00:19;102341.16;;;2.04;90.70
17525;BME280;40431;52.198;9.902;2023-02-28T10:03:04;102334.00;;;2.05;89.65
17525;BME280;40431;52.198;9.902;2023-02-28T10:05:36;102336.72;;;2.08;89.04
17525;BME280;40431;52.198;9.902;2023-02-28T10:08:09;102335.84;;;2.13;89.28
17525;BME280;40431;52.198;9.902;2023-02-28T10:10:40;102329.59;;;2.14;88.31
17525;BME280;40431;52.198;9.902;2023-02-28T10:13:14;102326.91;;;2.14;88.01
17525;BME280;40431;52.198;9.902;2023-02-28T10:15:45;102324.25;;;2.14;86.72
17525;BME280;40431;52.198;9.902;2023-02-28T10:18:18;102324.25;;;2.14;88.03
17525;BME280;40431;52.198;9.902;2023-02-28T10:20:47;102317.97;;;2.11;85.43
17525;BME280;40431;52.198;9.902;2023-02-28T10:23:20;102325.16;;;2.20;88.30
17525;BME280;40431;52.198;9.902;2023-02-28T10:25:52;102320.72;;;2.25;86.90
17525;BME280;40431;52.198;9.902;2023-02-28T10:28:19;102320.72;;;2.25;86.52
17525;BME280;40431;52.198;9.902;2023-02-28T10:30:47;102326.94;;;2.22;85.68
17525;BME280;40431;52.198;9.902;2023-02-28T10:33:19;102321.56;;;2.13;86.11
17525;BME280;40431;52.198;9.902;2023-02-28T10:35:47;102321.56;;;2.17;85.94
17525;BME280;40431;52.198;9.902;2023-02-28T10:38:17;102311.75;;;2.23;88.21
17525;BME280;40431;52.198;9.902;2023-02-28T10:40:44;102313.56;;;2.24;89.07
17525;BME280;40431;52.198;9.902;2023-02-28T10:43:19;102314.44;;;2.37;89.94
17525;BME280;40431;52.198;9.902;2023-02-28T10:45:55;102318.06;;;2.54;89.96
17525;BME280;40431;52.198;9.902;2023-02-28T10:48:38;102318.97;;;2.61;87.82
17525;BME280;40431;52.198;9.902;2023-02-28T10:51:07;102316.25;;;2.67;88.10
17525;BME280;40431;52.198;9.902;2023-02-28T10:53:38;102318.97;;;2.70;88.72
17525;BME280;40431;52.198;9.902;2023-02-28T10:56:16;102318.06;;;2.74;87.04
17525;BME280;40431;52.198;9.902;2023-02-28T10:58:48;102310.91;;;2.82;86.85
17525;BME280;40431;52.198;9.902;2023-02-28T11:01:16;102321.63;;;2.86;84.78
17525;BME280;40431;52.198;9.902;2023-02-28T11:03:45;102305.56;;;2.89;83.64
17525;BME280;40431;52.198;9.902;2023-02-28T11:06:19;102309.09;;;2.94;84.47
17525;BME280;40431;52.198;9.902;2023-02-28T11:08:49;102305.53;;;3.03;83.48
17525;BME280;40431;52.198;9.902;2023-02-28T11:11:17;102300.16;;;3.04;81.99
17525;BME280;40431;52.198;9.902;2023-02-28T11:13:47;102305.50;;;3.06;82.70
17525;BME280;40431;52.198;9.902;2023-02-28T11:16:16;102292.09;;;3.13;83.52
17525;BME280;40431;52.198;9.902;2023-02-28T11:18:48;102301.91;;;3.24;84.26
17525;BME280;40431;52.198;9.902;2023-02-28T11:21:18;102301.88;;;3.39;82.46
17525;BME280;40431;52.198;9.902;2023-02-28T11:23:47;102295.56;;;3.56;81.17
17525;BME280;40431;52.198;9.902;2023-02-28T11:26:16;102289.22;;;3.69;75.97
17525;BME280;40431;52.198;9.902;2023-02-28T11:29:08;102277.59;;;3.76;75.23
17525;BME280;40431;52.198;9.902;2023-02-28T11:31:35;102282.97;;;3.72;76.63
17525;BME280;40431;52.198;9.902;2023-02-28T11:34:23;102276.75;;;3.62;76.88
17525;BME280;40431;52.198;9.902;2023-02-28T11:36:49;102274.97;;;3.61;77.71
17525;BME280;40431;52.198;9.902;2023-02-28T11:39:17;102271.38;;;3.60;79.43
17525;BME280;40431;52.198;9.902;2023-02-28T11:41:55;102262.47;;;3.57;76.32
17525;BME280;40431;52.198;9.902;2023-02-28T11:44:32;102264.25;;;3.61;75.36
17525;BME280;40431;52.198;9.902;2023-02-28T11:47:10;102252.59;;;3.65;72.76
17525;BME280;40431;52.198;9.902;2023-02-28T11:49:46;102257.06;;;3.66;72.44
17525;BME280;40431;52.198;9.902;2023-02-28T11:52:21;102257.88;;;3.79;74.64
17525;BME280;40431;52.198;9.902;2023-02-28T11:54:59;102258.72;;;3.89;75.23
17525;BME280;40431;52.198;9.902;2023-02-28T11:57:38;102256.84;;;4.03;73.28
17525;BME280;40431;52.198;9.902;2023-02-28T12:00:25;102252.28;;;4.17;67.95
17525;BME280;40431;52.198;9.902;2023-02-28T12:03:01;102254.81;;;4.34;62.59
17525;BME280;40431;52.198;9.902;2023-02-28T12:05:35;102248.50;;;4.43;64.44
17525;BME280;40431;52.198;9.902;2023-02-28T12:08:17;102239.47;;;4.52;64.09
17525;BME280;40431;52.198;9.902;2023-02-28T12:10:59;102241.19;;;4.61;63.60
17525;BME280;40431;52.198;9.902;2023-02-28T12:13:37;102230.47;;;4.58;63.92
17525;BME280;40431;52.198;9.902;2023-02-28T12:16:27;102230.38;;;4.67;63.53
17525;BME280;40431;52.198;9.902;2023-02-28T12:19:10;102228.56;;;4.69;61.04
17525;BME280;40431;52.198;9.902;2023-02-28T12:21:52;102224.88;;;4.79;63.83
17525;BME280;40431;52.198;9.902;2023-02-28T12:24:34;102230.25;;;4.79;64.19
17525;BME280;40431;52.198;9.902;2023-02-28T12:27:07;102223.94;;;4.83;65.59
17525;BME280;40431;52.198;9.902;2023-02-28T12:29:41;102237.47;;;4.77;63.95
17525;BME280;40431;52.198;9.902;2023-02-28T12:32:13;102220.56;;;4.64;64.06
17525;BME280;40431;52.198;9.902;2023-02-28T12:34:46;102214.34;;;4.58;63.71
17525;BME280;40431;52.198;9.902;2023-02-28T12:37:19;102212.50;;;4.63;63.94
17525;BME280;40431;52.198;9.902;2023-02-28T12:39:50;102203.47;;;4.70;62.56
17525;BME280;40431;52.198;9.902;2023-02-28T12:42:24;102212.44;;;4.72;63.94
17525;BME280;40431;52.198;9.902;2023-02-28T12:44:56;102201.59;;;4.78;64.29
17525;BME280;40431;52.198;9.902;2023-02-28T12:47:24;102209.63;;;4.83;63.49
17525;BME280;40431;52.198;9.902;2023-02-28T12:49:54;102198.81;;;4.88;63.99
17525;BME280;40431;52.198;9.902;2023-02-28T12:52:31;102199.59;;;4.96;62.66
17525;BME280;40431;52.198;9.902;2023-02-28T12:55:03;102193.34;;;4.95;62.09
17525;BME280;40431;52.198;9.902;2023-02-28T12:57:35;102193.28;;;5.01;62.84
17525;BME280;40431;52.198;9.902;2023-02-28T13:00:11;102193.25;;;5.05;61.93
17525;BME280;40431;52.198;9.902;2023-02-28T13:02:49;102178.09;;;4.96;61.85
17525;BME280;40431;52.198;9.902;2023-02-28T13:05:29;102179.94;;;4.94;61.60
17525;BME280;40431;52.198;9.902;2023-02-28T13:08:22;102181.97;;;4.70;60.33
17525;BME280;40431;52.198;9.902;2023-02-28T13:10:52;102175.91;;;4.48;61.43